sensor_id;sensor_type;location;lat;lon;timestamp;pressure;altitude;pressure_sealevel;temperature;humidity
40075;BME280;26529;51.530;11.754;2023-04-03T00:00:56;101274.50;;;19.96;44.39
40075;BME280;26529;51.530;11.754;2023-04-03T00:03:22;101278.94;;;19.96;44.35
40075;BME280;26529;51.530;11.754;2023-04-03T00:05:48;101287.81;;;19.96;44.37
40075;BME280;26529;51.530;11.754;2023-04-03T00:08:14;101280.72;;;19.95;44.62
40075;BME280;26529;51.530;11.754;2023-04-03T00:10:39;101277.25;;;19.93;44.46
40075;BME280;26529;51.530;11.754;2023-04-03T00:13:06;101280.81;;;19.93;44.53
40075;BME280;26529;51.530;11.754;2023-04-03T00:15:32;101279.16;;;19.91;44.46
40075;BME280;26529;51.530;11.754;2023-04-03T00:17:57;101286.19;;;19.92;44.52
40075;BME280;26529;51.530;11.754;2023-04-03T00:20:23;101280.88;;;19.92;44.27
40075;BME280;26529;51.530;11.754;2023-04-03T00:22:49;101284.47;;;19.91;44.51
40075;BME280;26529;51.530;11.754;2023-04-03T00:25:14;101288.94;;;19.90;44.52
40075;BME280;26529;51.530;11.754;2023-04-03T00:27:40;101277.44;;;19.90;44.43
40075;BME280;26529;51.530;11.754;2023-04-03T00:30:08;101286.44;;;19.87;44.53
40075;BME280;26529;51.530;11.754;2023-04-03T00:32:34;101284.63;;;19.88;44.44
40075;BME280;26529;51.530;11.754;2023-04-03T00:34:59;101286.50;;;19.86;44.50
40075;BME280;26529;51.530;11.754;2023-04-03T00:37:25;101286.50;;;19.86;44.53
40075;BME280;26529;51.530;11.754;2023-04-03T00:39:50;101289.16;;;19.86;44.73
40075;BME280;26529;51.530;11.754;2023-04-03T00:42:16;101290.19;;;19.83;44.58
40075;BME280;26529;51.530;11.754;2023-04-03T00:47:11;101293.72;;;19.84;44.58
40075;BME280;26529;51.530;11.754;2023-04-03T00:49:38;101298.09;;;19.85;44.67
40075;BME280;26529;51.530;11.754;2023-04-03T00:52:07;101292.00;;;19.83;44.39
40075;BME280;26529;51.530;11.754;2023-04-03T00:54:35;101294.66;;;19.83;44.50
40075;BME280;26529;51.530;11.754;2023-04-03T00:57:03;101298.22;;;19.82;44.56
40075;BME280;26529;51.530;11.754;2023-04-03T00:59:31;101295.56;;;19.82;44.60
40075;BME280;26529;51.530;11.754;2023-04-03T01:01:59;101297.47;;;19.79;44.59
40075;BME280;26529;51.530;11.754;2023-04-03T01:04:43;101293.84;;;19.80;44.31
40075;BME280;26529;51.530;11.754;2023-04-03T01:07:26;101298.34;;;19.80;44.58
40075;BME280;26529;51.530;11.754;2023-04-03T01:09:57;101301.94;;;19.79;44.48
40075;BME280;26529;51.530;11.754;2023-04-03T01:12:24;101301.06;;;19.78;44.52
40075;BME280;26529;51.530;11.754;2023-04-03T01:14:52;101301.13;;;19.77;44.45
40075;BME280;26529;51.530;11.754;2023-04-03T01:17:32;101297.63;;;19.76;44.62
40075;BME280;26529;51.530;11.754;2023-04-03T01:25:42;101302.13;;;19.74;44.44
40075;BME280;26529;51.530;11.754;2023-04-03T01:28:12;101305.69;;;19.75;44.49
40075;BME280;26529;51.530;11.754;2023-04-03T01:31:13;101310.13;;;19.74;44.54
40075;BME280;26529;51.530;11.754;2023-04-03T01:33:42;101303.19;;;19.72;44.49
40075;BME280;26529;51.530;11.754;2023-04-03T01:36:09;101312.94;;;19.71;44.78
40075;BME280;26529;51.530;11.754;2023-04-03T01:38:35;101317.34;;;19.72;44.55
40075;BME280;26529;51.530;11.754;2023-04-03T01:41:00;101318.28;;;19.71;44.55
40075;BME280;26529;51.530;11.754;2023-04-03T01:43:26;101321.06;;;19.68;44.72
40075;BME280;26529;51.530;11.754;2023-04-03T01:45:52;101323.72;;;19.68;44.64
40075;BME280;26529;51.530;11.754;2023-04-03T01:48:20;101325.47;;;19.69;44.61
40075;BME280;26529;51.530;11.754;2023-04-03T01:50:45;101331.72;;;19.68;44.61
40075;BME280;26529;51.530;11.754;2023-04-03T01:53:11;101323.81;;;19.66;44.64
40075;BME280;26529;51.530;11.754;2023-04-03T01:55:37;101321.94;;;19.69;44.39
40075;BME280;26529;51.530;11.754;2023-04-03T01:58:02;101331.72;;;19.68;44.78
40075;BME280;26529;51.530;11.754;2023-04-03T02:00:28;101339.69;;;19.68;44.57
40075;BME280;26529;51.530;11.754;2023-04-03T02:02:53;101337.97;;;19.67;44.61
40075;BME280;26529;51.530;11.754;2023-04-03T02:05:19;101338.91;;;19.66;44.78
40075;BME280;26529;51.530;11.754;2023-04-03T02:07:45;101336.19;;;19.68;44.51
40075;BME280;26529;51.530;11.754;2023-04-03T02:10:11;101336.31;;;19.64;44.60
40075;BME280;26529;51.530;11.754;2023-04-03T02:12:36;101333.75;;;19.63;44.58
40075;BME280;26529;51.530;11.754;2023-04-03T02:15:02;101341.63;;;19.64;44.63
40075;BME280;26529;51.530;11.754;2023-04-03T02:17:27;101338.22;;;19.62;44.74
40075;BME280;26529;51.530;11.754;2023-04-03T02:19:54;101341.81;;;19.61;44.62
40075;BME280;26529;51.530;11.754;2023-04-03T02:22:19;101348.84;;;19.62;44.52
40075;BME280;26529;51.530;11.754;2023-04-03T02:24:45;101345.34;;;19.62;44.67
40075;BME280;26529;51.530;11.754;2023-04-03T02:27:11;101344.53;;;19.60;44.68
40075;BME280;26529;51.530;11.754;2023-04-03T02:29:36;101353.31;;;19.62;44.48
40075;BME280;26529;51.530;11.754;2023-04-03T02:32:02;101355.97;;;19.62;44.50
40075;BME280;26529;51.530;11.754;2023-04-03T02:34:28;101352.50;;;19.60;44.63
40075;BME280;26529;51.530;11.754;2023-04-03T02:36:55;101350.72;;;19.60;44.61
40075;BME280;26529;51.530;11.754;2023-04-03T02:39:21;101357.00;;;19.59;44.53
40075;BME280;26529;51.530;11.754;2023-04-03T02:41:47;101355.19;;;19.60;44.68
40075;BME280;26529;51.530;11.754;2023-04-03T02:44:18;101366.69;;;19.60;44.39
40075;BME280;26529;51.530;11.754;2023-04-03T02:46:45;101362.38;;;19.58;44.56
40075;BME280;26529;51.530;11.754;2023-04-03T02:49:10;101362.38;;;19.58;44.59
40075;BME280;26529;51.530;11.754;2023-04-03T02:51:36;101358.78;;;19.59;44.63
40075;BME280;26529;51.530;11.754;2023-04-03T02:54:01;101365.03;;;19.58;44.53
40075;BME280;26529;51.530;11.754;2023-04-03T02:56:30;101369.56;;;19.56;44.59
40075;BME280;26529;51.530;11.754;2023-04-03T02:58:56;101366.09;;;19.53;44.55
40075;BME280;26529;51.530;11.754;2023-04-03T03:01:22;101373.16;;;19.55;44.46
40075;BME280;26529;51.530;11.754;2023-04-03T03:03:47;101375.91;;;19.53;44.55
40075;BME280;26529;51.530;11.754;2023-04-03T03:06:17;101373.25;;;19.53;44.68
40075;BME280;26529;51.530;11.754;2023-04-03T03:08:43;101374.03;;;19.55;44.53
40075;BME280;26529;51.530;11.754;2023-04-03T03:11:09;101374.19;;;19.52;44.62
40075;BME280;26529;51.530;11.754;2023-04-03T03:13:35;101366.97;;;19.54;44.45
40075;BME280;26529;51.530;11.754;2023-04-03T03:16:01;101370.59;;;19.53;44.68
40075;BME280;26529;51.530;11.754;2023-04-03T03:18:28;101373.31;;;19.51;44.75
40075;BME280;26529;51.530;11.754;2023-04-03T03:20:58;101373.25;;;19.53;44.46
40075;BME280;26529;51.530;11.754;2023-04-03T03:23:25;101370.66;;;19.51;44.62
40075;BME280;26529;51.530;11.754;2023-04-03T03:25:56;101375.19;;;19.49;44.63
40075;BME280;26529;51.530;11.754;2023-04-03T03:28:22;101375.19;;;19.49;44.59
40075;BME280;26529;51.530;11.754;2023-04-03T03:30:48;101382.22;;;19.50;44.57
40075;BME280;26529;51.530;11.754;2023-04-03T03:33:13;101377.84;;;19.49;44.56
40075;BME280;26529;51.530;11.754;2023-04-03T03:35:39;101380.41;;;19.51;44.61
40075;BME280;26529;51.530;11.754;2023-04-03T03:38:05;101380.50;;;19.49;44.57
40075;BME280;26529;51.530;11.754;2023-04-03T03:40:31;101379.63;;;19.49;44.61
40075;BME280;26529;51.530;11.754;2023-04-03T03:42:57;101384.13;;;19.48;44.65
40075;BME280;26529;51.530;11.754;2023-04-03T03:45:22;101386.91;;;19.45;44.70
40075;BME280;26529;51.530;11.754;2023-04-03T03:47:48;101382.53;;;19.44;44.68
40075;BME280;26529;51.530;11.754;2023-04-03T03:50:14;101393.00;;;19.47;44.73
40075;BME280;26529;51.530;11.754;2023-04-03T03:52:40;101393.00;;;19.47;44.65
40075;BME280;26529;51.530;11.754;2023-04-03T03:55:05;101396.59;;;19.46;44.72
40075;BME280;26529;51.530;11.754;2023-04-03T03:57:33;101398.47;;;19.44;44.72
40075;BME280;26529;51.530;11.754;2023-04-03T03:59:59;101395.81;;;19.44;44.78
40075;BME280;26529;51.530;11.754;2023-04-03T04:02:25;101401.13;;;19.44;44.77
40075;BME280;26529;51.530;11.754;2023-04-03T04:04:52;101396.75;;;19.43;44.68
40075;BME280;26529;51.530;11.754;2023-04-03T04:07:17;101396.75;;;19.43;44.59
40075;BME280;26529;51.530;11.754;2023-04-03T04:09:43;101407.53;;;19.40;44.61
40075;BME280;26529;51.530;11.754;2023-04-03T04:12:09;101395.88;;;19.43;44.83
40075;BME280;26529;51.530;11.754;2023-04-03T04:14:34;101401.25;;;19.41;44.82
40075;BME280;26529;51.530;11.754;2023-04-03T04:17:00;101398.59;;;19.41;44.59
40075;BME280;26529;51.530;11.754;2023-04-03T04:19:28;101404.75;;;19.43;44.81
40075;BME280;26529;51.530;11.754;2023-04-03T04:21:53;101403.91;;;19.41;44.83
40075;BME280;26529;51.530;11.754;2023-04-03T04:24:19;101411.06;;;19.41;44.69
40075;BME280;26529;51.530;11.754;2023-04-03T04:26:46;101411.00;;;19.42;44.62
40075;BME280;26529;51.530;11.754;2023-04-03T04:29:14;101415.44;;;19.42;44.73
40075;BME280;26529;51.530;11.754;2023-04-03T04:31:40;101413.72;;;19.41;44.70
40075;BME280;26529;51.530;11.754;2023-04-03T04:34:06;101418.31;;;19.37;44.84
40075;BME280;26529;51.530;11.754;2023-04-03T04:36:32;101427.09;;;19.39;44.74
40075;BME280;26529;51.530;11.754;2023-04-03T04:38:57;101430.69;;;19.38;44.76
40075;BME280;26529;51.530;11.754;2023-04-03T04:41:25;101420.91;;;19.38;44.60
40075;BME280;26529;51.530;11.754;2023-04-03T04:43:52;101425.34;;;19.38;44.77
40075;BME280;26529;51.530;11.754;2023-04-03T04:46:18;101427.13;;;19.37;44.72
40075;BME280;26529;51.530;11.754;2023-04-03T04:48:48;101425.34;;;19.38;44.44
40075;BME280;26529;51.530;11.754;2023-04-03T04:51:16;101425.50;;;19.35;44.65
40075;BME280;26529;51.530;11.754;2023-04-03T04:53:42;101439.59;;;19.37;44.43
40075;BME280;26529;51.530;11.754;2023-04-03T04:56:11;101428.97;;;19.37;44.74
40075;BME280;26529;51.530;11.754;2023-04-03T04:58:38;101430.84;;;19.35;44.60
40075;BME280;26529;51.530;11.754;2023-04-03T05:01:09;101439.72;;;19.34;44.66
40075;BME280;26529;51.530;11.754;2023-04-03T05:03:40;101441.47;;;19.35;44.71
40075;BME280;26529;51.530;11.754;2023-04-03T05:06:06;101444.19;;;19.33;44.55
40075;BME280;26529;51.530;11.754;2023-04-03T05:08:33;101449.44;;;19.35;44.75
40075;BME280;26529;51.530;11.754;2023-04-03T05:10:59;101448.63;;;19.33;44.71
40075;BME280;26529;51.530;11.754;2023-04-03T05:13:26;101445.13;;;19.32;44.65
40075;BME280;26529;51.530;11.754;2023-04-03T05:15:53;101459.28;;;19.33;44.51
40075;BME280;26529;51.530;11.754;2023-04-03T05:18:18;101447.78;;;19.32;44.65
40075;BME280;26529;51.530;11.754;2023-04-03T05:20:44;101444.31;;;19.30;44.62
40075;BME280;26529;51.530;11.754;2023-04-03T05:23:10;101452.09;;;19.35;44.71
40075;BME280;26529;51.530;11.754;2023-04-03T05:25:39;101453.16;;;19.31;44.56
40075;BME280;26529;51.530;11.754;2023-04-03T05:28:06;101451.28;;;19.33;44.70
40075;BME280;26529;51.530;11.754;2023-04-03T05:30:32;101455.81;;;19.31;44.62
40075;BME280;26529;51.530;11.754;2023-04-03T05:32:59;101451.44;;;19.30;44.74
40075;BME280;26529;51.530;11.754;2023-04-03T05:35:37;101456.78;;;19.30;44.60
40075;BME280;26529;51.530;11.754;2023-04-03T05:38:09;101459.44;;;19.30;44.52
40075;BME280;26529;51.530;11.754;2023-04-03T05:40:35;101463.81;;;19.31;44.58
40075;BME280;26529;51.530;11.754;2023-04-03T05:43:00;101469.13;;;19.31;44.55
40075;BME280;26529;51.530;11.754;2023-04-03T05:45:29;101469.13;;;19.31;44.54
40075;BME280;26529;51.530;11.754;2023-04-03T05:47:56;101470.91;;;19.30;44.56
40075;BME280;26529;51.530;11.754;2023-04-03T05:50:22;101465.75;;;19.27;44.61
40075;BME280;26529;51.530;11.754;2023-04-03T05:52:52;101469.34;;;19.26;44.54
40075;BME280;26529;51.530;11.754;2023-04-03T05:55:20;101472.78;;;19.28;44.73
40075;BME280;26529;51.530;11.754;2023-04-03T05:57:46;101468.34;;;19.29;44.59
40075;BME280;26529;51.530;11.754;2023-04-03T06:00:13;101475.50;;;19.27;44.64
40075;BME280;26529;51.530;11.754;2023-04-03T06:02:42;101480.81;;;19.27;44.54
40075;BME280;26529;51.530;11.754;2023-04-03T06:05:13;101482.53;;;19.28;44.76
40075;BME280;26529;51.530;11.754;2023-04-03T06:07:40;101483.47;;;19.27;44.71
40075;BME280;26529;51.530;11.754;2023-04-03T06:10:07;101484.41;;;19.25;44.56
40075;BME280;26529;51.530;11.754;2023-04-03T06:12:32;101490.53;;;19.28;44.34
40075;BME280;26529;51.530;11.754;2023-04-03T06:14:58;101495.06;;;19.25;44.72
40075;BME280;26529;51.530;11.754;2023-04-03T06:17:24;101488.88;;;19.25;44.69
40075;BME280;26529;51.530;11.754;2023-04-03T06:19:49;101492.47;;;19.24;44.88
40075;BME280;26529;51.530;11.754;2023-04-03T06:22:15;101491.47;;;19.27;44.54
40075;BME280;26529;51.530;11.754;2023-04-03T06:24:41;101495.06;;;19.25;44.70
40075;BME280;26529;51.530;11.754;2023-04-03T06:27:07;101498.50;;;19.28;44.68
40075;BME280;26529;51.530;11.754;2023-04-03T06:29:32;101487.13;;;19.24;44.53
40075;BME280;26529;51.530;11.754;2023-04-03T06:31:58;101500.44;;;19.24;44.77
40075;BME280;26529;51.530;11.754;2023-04-03T06:34:23;101494.22;;;19.25;43.97
40075;BME280;26529;51.530;11.754;2023-04-03T06:36:49;101503.97;;;19.24;44.65
40075;BME280;26529;51.530;11.754;2023-04-03T06:39:19;101505.84;;;19.22;44.79
40075;BME280;26529;51.530;11.754;2023-04-03T06:41:48;101506.63;;;19.24;44.56
40075;BME280;26529;51.530;11.754;2023-04-03T06:44:15;101507.56;;;19.23;44.60
40075;BME280;26529;51.530;11.754;2023-04-03T06:46:42;101511.16;;;19.22;44.53
40075;BME280;26529;51.530;11.754;2023-04-03T06:49:08;101508.41;;;19.24;44.65
40075;BME280;26529;51.530;11.754;2023-04-03T06:51:34;101512.00;;;19.23;44.59
40075;BME280;26529;51.530;11.754;2023-04-03T06:54:00;101516.38;;;19.24;44.62
40075;BME280;26529;51.530;11.754;2023-04-03T06:56:27;101515.53;;;19.23;44.72
40075;BME280;26529;51.530;11.754;2023-04-03T06:58:54;101517.41;;;19.21;44.75
40075;BME280;26529;51.530;11.754;2023-04-03T07:01:20;101519.13;;;19.22;44.90
40075;BME280;26529;51.530;11.754;2023-04-03T07:03:47;101523.56;;;19.22;44.58
40075;BME280;26529;51.530;11.754;2023-04-03T07:06:14;101524.44;;;19.22;44.72
40075;BME280;26529;51.530;11.754;2023-04-03T07:08:40;101525.38;;;19.21;44.75
40075;BME280;26529;51.530;11.754;2023-04-03T07:11:06;101534.16;;;19.23;44.69
40075;BME280;26529;51.530;11.754;2023-04-03T07:13:32;101536.94;;;19.20;44.68
40075;BME280;26529;51.530;11.754;2023-04-03T07:15:58;101530.63;;;19.23;44.62
40075;BME280;26529;51.530;11.754;2023-04-03T07:18:24;101539.47;;;19.23;44.71
40075;BME280;26529;51.530;11.754;2023-04-03T07:20:50;101546.56;;;19.23;44.57
40075;BME280;26529;51.530;11.754;2023-04-03T07:23:16;101543.91;;;19.23;44.67
40075;BME280;26529;51.530;11.754;2023-04-03T07:25:45;101550.09;;;19.23;44.59
40075;BME280;26529;51.530;11.754;2023-04-03T07:28:11;101539.47;;;19.23;44.70
40075;BME280;26529;51.530;11.754;2023-04-03T07:30:49;101550.09;;;19.23;44.70
40075;BME280;26529;51.530;11.754;2023-04-03T07:33:16;101545.63;;;19.24;44.67
40075;BME280;26529;51.530;11.754;2023-04-03T07:35:43;101544.78;;;19.23;44.59
40075;BME280;26529;51.530;11.754;2023-04-03T07:38:09;101550.94;;;19.24;44.65
40075;BME280;26529;51.530;11.754;2023-04-03T07:40:36;101557.16;;;19.24;44.72
40075;BME280;26529;51.530;11.754;2023-04-03T07:43:02;101546.50;;;19.24;44.61
40075;BME280;26529;51.530;11.754;2023-04-03T07:45:28;101548.38;;;19.22;44.73
40075;BME280;26529;51.530;11.754;2023-04-03T07:47:53;101555.44;;;19.23;44.71
40075;BME280;26529;51.530;11.754;2023-04-03T07:50:19;101547.44;;;19.23;44.60
40075;BME280;26529;51.530;11.754;2023-04-03T07:52:45;101562.53;;;19.23;44.56
40075;BME280;26529;51.530;11.754;2023-04-03T07:55:12;101564.19;;;19.25;44.52
40075;BME280;26529;51.530;11.754;2023-04-03T07:57:37;101557.16;;;19.24;44.51
40075;BME280;26529;51.530;11.754;2023-04-03T08:00:04;101562.47;;;19.24;44.50
40075;BME280;26529;51.530;11.754;2023-04-03T08:02:37;101560.75;;;19.23;44.56
40075;BME280;26529;51.530;11.754;2023-04-03T08:05:03;101548.28;;;19.24;44.76
40075;BME280;26529;51.530;11.754;2023-04-03T08:07:28;101551.03;;;19.22;44.66
40075;BME280;26529;51.530;11.754;2023-04-03T08:09:54;101556.28;;;19.24;44.79
40075;BME280;26529;51.530;11.754;2023-04-03T08:12:20;101556.38;;;19.22;44.73
40075;BME280;26529;51.530;11.754;2023-04-03T08:14:46;101557.16;;;19.24;44.58
40075;BME280;26529;51.530;11.754;2023-04-03T08:17:11;101559.88;;;19.23;44.54
40075;BME280;26529;51.530;11.754;2023-04-03T08:19:38;101556.22;;;19.25;44.71
40075;BME280;26529;51.530;11.754;2023-04-03T08:22:03;101553.56;;;19.25;44.55
40075;BME280;26529;51.530;11.754;2023-04-03T08:24:31;101564.13;;;19.27;44.60
40075;BME280;26529;51.530;11.754;2023-04-03T08:26:56;101560.59;;;19.27;44.69
40075;BME280;26529;51.530;11.754;2023-04-03T08:29:22;101562.31;;;19.28;44.69
40075;BME280;26529;51.530;11.754;2023-04-03T08:31:47;101557.00;;;19.28;44.62
40075;BME280;26529;51.530;11.754;2023-04-03T08:34:15;101562.41;;;19.26;44.65
40075;BME280;26529;51.530;11.754;2023-04-03T08:36:40;101553.44;;;19.29;44.69
40075;BME280;26529;51.530;11.754;2023-04-03T08:39:06;101553.44;;;19.29;44.70
40075;BME280;26529;51.530;11.754;2023-04-03T08:41:34;101556.88;;;19.31;44.56
40075;BME280;26529;51.530;11.754;2023-04-03T08:46:42;101562.06;;;19.34;44.51
40075;BME280;26529;51.530;11.754;2023-04-03T08:49:21;101553.16;;;19.35;44.52
40075;BME280;26529;51.530;11.754;2023-04-03T08:51:49;101568.19;;;19.36;44.34
40075;BME280;26529;51.530;11.754;2023-04-03T08:54:27;101564.66;;;19.35;44.59
40075;BME280;26529;51.530;11.754;2023-04-03T08:56:54;101554.75;;;19.39;44.54
40075;BME280;26529;51.530;11.754;2023-04-03T08:59:27;101566.31;;;19.38;44.58
40075;BME280;26529;51.530;11.754;2023-04-03T09:01:54;101559.34;;;19.35;44.70
40075;BME280;26529;51.530;11.754;2023-04-03T09:04:20;101569.91;;;19.37;44.56
40075;BME280;26529;51.530;11.754;2023-04-03T09:06:52;101569.13;;;19.35;44.62
40075;BME280;26529;51.530;11.754;2023-04-03T09:09:33;101568.19;;;19.36;44.57
40075;BME280;26529;51.530;11.754;2023-04-03T09:21:08;101578.88;;;19.34;44.63
40075;BME280;26529;51.530;11.754;2023-04-03T09:23:45;101583.06;;;19.40;44.49
40075;BME280;26529;51.530;11.754;2023-04-03T09:26:17;101583.06;;;19.40;44.42
40075;BME280;26529;51.530;11.754;2023-04-03T09:28:44;101584.78;;;19.41;44.55
40075;BME280;26529;51.530;11.754;2023-04-03T09:31:22;101575.19;;;19.38;44.68
40075;BME280;26529;51.530;11.754;2023-04-03T09:34:22;101575.09;;;19.40;44.68
40075;BME280;26529;51.530;11.754;2023-04-03T09:36:53;101582.94;;;19.43;44.61
40075;BME280;26529;51.530;11.754;2023-04-03T09:39:25;101584.78;;;19.41;44.57
40075;BME280;26529;51.530;11.754;2023-04-03T09:44:36;101575.91;;;19.42;44.42
40075;BME280;26529;51.530;11.754;2023-04-03T09:47:31;101578.63;;;19.41;44.55
40075;BME280;26529;51.530;11.754;2023-04-03T09:50:18;101573.31;;;19.41;44.57
40075;BME280;26529;51.530;11.754;2023-04-03T09:52:46;101566.25;;;19.39;44.62
40075;BME280;26529;51.530;11.754;2023-04-03T09:55:28;101561.66;;;19.43;44.72
40075;BME280;26529;51.530;11.754;2023-04-03T09:58:00;101563.38;;;19.44;44.59
40075;BME280;26529;51.530;11.754;2023-04-03T10:00:39;101563.44;;;19.43;44.63
40075;BME280;26529;51.530;11.754;2023-04-03T10:03:24;101557.19;;;19.44;44.80
40075;BME280;26529;51.530;11.754;2023-04-03T10:05:50;101554.63;;;19.42;44.68
40075;BME280;26529;51.530;11.754;2023-04-03T10:08:28;101554.63;;;19.42;44.62
40075;BME280;26529;51.530;11.754;2023-04-03T10:11:13;101550.88;;;19.46;44.52
40075;BME280;26529;51.530;11.754;2023-04-03T10:13:50;101543.72;;;19.48;44.57
40075;BME280;26529;51.530;11.754;2023-04-03T10:16:18;101545.44;;;19.49;44.61
40075;BME280;26529;51.530;11.754;2023-04-03T10:21:59;101541.69;;;19.53;44.63
40075;BME280;26529;51.530;11.754;2023-04-03T10:24:35;101537.34;;;19.51;44.50
40075;BME280;26529;51.530;11.754;2023-04-03T10:27:13;101535.41;;;19.55;44.55
40075;BME280;26529;51.530;11.754;2023-04-03T10:30:04;101532.75;;;19.55;44.65
40075;BME280;26529;51.530;11.754;2023-04-03T10:32:58;101543.41;;;19.55;44.54
40075;BME280;26529;51.530;11.754;2023-04-03T10:38:27;101538.91;;;19.57;44.64
40075;BME280;26529;51.530;11.754;2023-04-03T10:41:04;101532.75;;;19.55;44.71
40075;BME280;26529;51.530;11.754;2023-04-03T10:44:07;101535.50;;;19.53;44.79
40075;BME280;26529;51.530;11.754;2023-04-03T10:46:43;101536.38;;;19.53;44.48
40075;BME280;26529;51.530;11.754;2023-04-03T10:49:42;101531.03;;;19.53;44.62
40075;BME280;26529;51.530;11.754;2023-04-03T10:54:59;101518.69;;;19.52;44.65
40075;BME280;26529;51.530;11.754;2023-04-03T10:57:28;101522.28;;;19.51;44.70
40075;BME280;26529;51.530;11.754;2023-04-03T10:59:59;101522.28;;;19.51;44.61
40075;BME280;26529;51.530;11.754;2023-04-03T11:02:37;101525.88;;;19.50;44.66
40075;BME280;26529;51.530;11.754;2023-04-03T11:08:03;101516.91;;;19.53;44.60
40075;BME280;26529;51.530;11.754;2023-04-03T11:10:41;101516.03;;;19.52;44.65
40075;BME280;26529;51.530;11.754;2023-04-03T11:13:13;101514.22;;;19.53;44.54
40075;BME280;26529;51.530;11.754;2023-04-03T11:15:39;101507.09;;;19.53;44.53
40075;BME280;26529;51.530;11.754;2023-04-03T11:18:11;101512.22;;;19.58;44.51
40075;BME280;26529;51.530;11.754;2023-04-03T11:20:42;101505.25;;;19.56;44.72
40075;BME280;26529;51.530;11.754;2023-04-03T11:23:25;101500.00;;;19.54;44.62
40075;BME280;26529;51.530;11.754;2023-04-03T11:26:07;101500.94;;;19.53;44.48
40075;BME280;26529;51.530;11.754;2023-04-03T11:28:33;101507.19;;;19.52;44.63
40075;BME280;26529;51.530;11.754;2023-04-03T11:31:02;101500.94;;;19.53;44.72
40075;BME280;26529;51.530;11.754;2023-04-03T11:33:47;101500.00;;;19.54;44.80
40075;BME280;26529;51.530;11.754;2023-04-03T11:38:52;101509.75;;;19.53;44.69
40075;BME280;26529;51.530;11.754;2023-04-03T11:41:25;101501.00;;;19.51;44.58
40075;BME280;26529;51.530;11.754;2023-04-03T11:46:22;101491.06;;;19.55;44.62
40075;BME280;26529;51.530;11.754;2023-04-03T11:48:49;101486.47;;;19.59;44.64
40075;BME280;26529;51.530;11.754;2023-04-03T11:53:42;101487.53;;;19.55;44.63
40075;BME280;26529;51.530;11.754;2023-04-03T12:04:17;101477.28;;;19.66;44.47
40075;BME280;26529;51.530;11.754;2023-04-03T12:06:51;101464.75;;;19.68;44.33
40075;BME280;26529;51.530;11.754;2023-04-03T12:11:49;101469.94;;;19.71;44.40
40075;BME280;26529;51.530;11.754;2023-04-03T12:14:16;101462.19;;;19.66;44.64
40075;BME280;26529;51.530;11.754;2023-04-03T12:16:44;101461.91;;;19.73;44.51
40075;BME280;26529;51.530;11.754;2023-04-03T12:29:28;101462.31;;;19.83;44.75
40075;BME280;26529;51.530;11.754;2023-04-03T12:40:19;101461.88;;;19.92;44.82
40075;BME280;26529;51.530;11.754;2023-04-03T12:45:40;101458.28;;;19.93;44.78
40075;BME280;26529;51.530;11.754;2023-04-03T12:48:13;101444.00;;;19.94;44.73
40075;BME280;26529;51.530;11.754;2023-04-03T12:50:40;101450.09;;;19.98;44.55
40075;BME280;26529;51.530;11.754;2023-04-03T12:55:37;101443.03;;;19.97;44.57
40075;BME280;26529;51.530;11.754;2023-04-03T13:00:59;101443.97;;;19.96;44.58
40075;BME280;26529;51.530;11.754;2023-04-03T13:03:25;101449.34;;;19.94;44.71
40075;BME280;26529;51.530;11.754;2023-04-03T13:05:58;101444.00;;;19.94;44.59
40075;BME280;26529;51.530;11.754;2023-04-03T13:08:24;101438.69;;;19.94;44.52
40075;BME280;26529;51.530;11.754;2023-04-03T13:11:03;101436.97;;;19.93;44.54
40075;BME280;26529;51.530;11.754;2023-04-03T13:13:31;101444.97;;;19.93;44.63
40075;BME280;26529;51.530;11.754;2023-04-03T13:15:57;101439.63;;;19.93;44.59
40075;BME280;26529;51.530;11.754;2023-04-03T13:18:33;101443.09;;;19.95;44.64
40075;BME280;26529;51.530;11.754;2023-04-03T13:21:15;101440.31;;;19.98;44.75
40075;BME280;26529;51.530;11.754;2023-04-03T13:23:45;101443.63;;;20.03;44.71
40075;BME280;26529;51.530;11.754;2023-04-03T13:26:15;101437.19;;;20.08;44.57
40075;BME280;26529;51.530;11.754;2023-04-03T13:28:43;101433.38;;;20.13;44.56
40075;BME280;26529;51.530;11.754;2023-04-03T13:31:22;101430.50;;;20.18;44.51
40075;BME280;26529;51.530;11.754;2023-04-03T13:34:02;101426.00;;;20.18;44.56
40075;BME280;26529;51.530;11.754;2023-04-03T13:36:32;101426.00;;;20.18;44.36
40075;BME280;26529;51.530;11.754;2023-04-03T13:39:01;101432.19;;;20.19;44.50
40075;BME280;26529;51.530;11.754;2023-04-03T13:41:35;101427.75;;;20.19;44.50
40075;BME280;26529;51.530;11.754;2023-04-03T13:47:15;101426.81;;;20.20;44.63
40075;BME280;26529;51.530;11.754;2023-04-03T13:49:58;101425.00;;;20.21;44.54
40075;BME280;26529;51.530;11.754;2023-04-03T13:55:00;101428.47;;;20.23;44.73
40075;BME280;26529;51.530;11.754;2023-04-03T13:57:27;101428.47;;;20.23;44.69
40075;BME280;26529;51.530;11.754;2023-04-03T13:59:52;101427.53;;;20.24;44.72
40075;BME280;26529;51.530;11.754;2023-04-03T14:02:22;101423.91;;;20.25;44.59
40075;BME280;26529;51.530;11.754;2023-04-03T14:04:57;101416.78;;;20.26;44.64
40075;BME280;26529;51.530;11.754;2023-04-03T14:07:25;101430.00;;;20.27;44.47
40075;BME280;26529;51.530;11.754;2023-04-03T14:09:52;101421.09;;;20.28;44.56
40075;BME280;26529;51.530;11.754;2023-04-03T14:12:27;101416.56;;;20.30;44.50
40075;BME280;26529;51.530;11.754;2023-04-03T14:14:53;101420.78;;;20.34;44.29